createdAt,value
2019-04-06T00:00:52.507Z,37.79
2019-04-06T00:01:52.504Z,37.79
2019-04-06T00:02:52.495Z,37.79
2019-04-06T00:03:52.521Z,38.10
2019-04-06T00:04:52.480Z,37.79
2019-04-06T00:05:52.503Z,37.70
2019-04-06T00:06:52.490Z,38.60
2019-04-06T00:07:52.486Z,37.79
2019-04-06T00:08:52.477Z,37.60
2019-04-06T00:09:52.473Z,37.79
2019-04-06T00:10:52.461Z,38.10
2019-04-06T00:11:52.458Z,37.79
2019-04-06T00:12:52.449Z,38.20
2019-04-06T00:13:52.442Z,38.20
2019-04-06T00:14:52.436Z,38.20
2019-04-06T00:15:52.431Z,37.79
2019-04-06T00:16:52.423Z,37.79
2019-04-06T00:17:52.417Z,38.10
2019-04-06T00:18:52.409Z,38.40
2019-04-06T00:19:52.401Z,38.20
2019-04-06T00:20:52.396Z,37.79
2019-04-06T00:21:52.390Z,37.79
2019-04-06T00:22:52.383Z,37.79
2019-04-06T00:23:52.376Z,38.10
2019-04-06T00:24:52.370Z,37.90
2019-04-06T00:25:52.366Z,38.40
2019-04-06T00:26:52.355Z,37.79
2019-04-06T00:27:52.350Z,37.79
2019-04-06T00:28:52.347Z,37.79
2019-04-06T00:29:52.337Z,38.00
2019-04-06T00:30:52.331Z,38.20
2019-04-06T00:31:52.323Z,38.10
2019-04-06T00:32:52.316Z,37.70
2019-04-06T00:33:52.308Z,38.20
2019-04-06T00:34:52.301Z,38.20
2019-04-06T00:35:52.294Z,38.40
2019-04-06T00:36:52.287Z,38.20
2019-04-06T00:37:52.281Z,38.10
2019-04-06T00:38:52.275Z,38.20
2019-04-06T00:39:52.285Z,38.20
2019-04-06T00:40:52.260Z,37.70
2019-04-06T00:41:52.255Z,37.60
2019-04-06T00:42:52.250Z,37.60
2019-04-06T00:43:52.243Z,37.70
2019-04-06T00:44:52.263Z,38.20
2019-04-06T00:45:52.248Z,38.20
2019-04-06T00:46:52.241Z,38.10
2019-04-06T00:47:52.252Z,38.20
2019-04-06T00:48:52.231Z,38.00
2019-04-06T00:49:52.217Z,38.10
2019-04-06T00:50:52.306Z,37.90
2019-04-06T00:51:52.207Z,37.70
2019-04-06T00:52:52.204Z,38.10
2019-04-06T00:53:52.198Z,38.50
2019-04-06T00:54:52.187Z,37.81
2019-04-06T00:55:55.768Z,37.79
2019-04-06T00:56:52.177Z,37.79
2019-04-06T00:57:52.176Z,37.79
2019-04-06T00:58:52.161Z,37.70
2019-04-06T00:59:52.156Z,38.01
2019-04-06T01:00:52.151Z,38.10
2019-04-06T01:01:52.143Z,37.79
2019-04-06T01:02:52.135Z,37.79
2019-04-06T01:03:52.129Z,38.20
2019-04-06T01:04:52.121Z,37.62
2019-04-06T01:05:52.116Z,37.62
2019-04-06T01:06:52.109Z,38.22
2019-04-06T01:07:52.106Z,37.79
2019-04-06T01:08:52.095Z,37.79
2019-04-06T01:09:52.094Z,37.90
2019-04-06T01:10:52.079Z,37.62
2019-04-06T01:11:52.079Z,38.22
2019-04-06T01:12:52.064Z,37.92
2019-04-06T01:13:52.059Z,37.71
2019-04-06T01:14:52.049Z,38.20
2019-04-06T01:15:52.064Z,38.22
2019-04-06T01:16:52.039Z,38.22
2019-04-06T01:17:52.032Z,37.70
2019-04-06T01:18:52.024Z,37.90
2019-04-06T01:19:52.020Z,37.70
2019-04-06T01:20:52.011Z,38.20
2019-04-06T01:21:52.004Z,37.79
2019-04-06T01:22:51.999Z,37.79
2019-04-06T01:23:51.992Z,37.60
2019-04-06T01:24:52.050Z,37.79
2019-04-06T01:25:51.978Z,38.22
2019-04-06T01:26:51.974Z,38.01
2019-04-06T01:27:51.964Z,37.81
2019-04-06T01:28:51.962Z,37.79
2019-04-06T01:29:51.953Z,37.62
2019-04-06T01:30:51.947Z,37.81
2019-04-06T01:31:51.939Z,38.00
2019-04-06T01:32:51.933Z,38.20
2019-04-06T01:33:51.924Z,37.92
2019-04-06T01:34:51.915Z,38.20
2019-04-06T01:35:51.910Z,37.81
2019-04-06T01:36:51.903Z,38.30
2019-04-06T01:37:51.899Z,37.71
2019-04-06T01:38:51.891Z,37.79
2019-04-06T01:39:51.884Z,37.62
2019-04-06T01:40:51.876Z,38.20
2019-04-06T01:41:51.870Z,37.62
2019-04-06T01:42:51.864Z,37.92
2019-04-06T01:43:51.855Z,37.81
2019-04-06T01:44:51.848Z,37.81
2019-04-06T01:45:51.844Z,38.10
2019-04-06T01:46:51.835Z,38.22
2019-04-06T01:47:51.828Z,37.62
2019-04-06T01:48:51.828Z,38.20
2019-04-06T01:49:51.814Z,37.71
2019-04-06T01:50:51.806Z,38.01
2019-04-06T01:51:51.823Z,37.81
2019-04-06T01:52:51.817Z,38.22
2019-04-06T01:53:51.843Z,38.12
2019-04-06T01:54:51.812Z,37.62
2019-04-06T01:55:51.797Z,38.12
2019-04-06T01:56:51.790Z,37.81
2019-04-06T01:57:51.782Z,38.22
2019-04-06T01:58:51.775Z,37.81
2019-04-06T01:59:51.831Z,38.20
2019-04-06T02:00:51.770Z,38.20
2019-04-06T02:01:51.766Z,37.62
2019-04-06T02:02:51.758Z,37.62
2019-04-06T02:03:51.751Z,37.92
2019-04-06T02:04:51.746Z,38.12
2019-04-06T02:05:51.742Z,38.12
2019-04-06T02:06:51.731Z,38.22
2019-04-06T02:07:51.726Z,38.52
2019-04-06T02:08:51.717Z,38.32
2019-04-06T02:09:51.712Z,37.62
2019-04-06T02:10:51.705Z,38.22
2019-04-06T02:11:51.698Z,38.12
2019-04-06T02:12:51.695Z,38.12
2019-04-06T02:13:51.748Z,38.12
2019-04-06T02:14:51.678Z,38.12
2019-04-06T02:15:51.673Z,38.12
2019-04-06T02:16:51.688Z,38.12
2019-04-06T02:17:51.659Z,38.01
2019-04-06T02:18:51.652Z,38.32
2019-04-06T02:19:51.647Z,38.42
2019-04-06T02:20:51.638Z,37.21
2019-04-06T02:21:51.632Z,38.10
2019-04-06T02:22:51.628Z,38.12
2019-04-06T02:23:51.619Z,38.12
2019-04-06T02:24:51.614Z,38.52
2019-04-06T02:25:51.607Z,38.12
2019-04-06T02:26:51.629Z,38.12
2019-04-06T02:27:51.597Z,38.12
2019-04-06T02:28:51.591Z,38.12
2019-04-06T02:29:51.584Z,38.01
2019-04-06T02:30:51.579Z,38.22
2019-04-06T02:31:51.572Z,38.01
2019-04-06T02:32:51.628Z,38.12
2019-04-06T02:33:51.633Z,38.12
2019-04-06T02:34:51.561Z,38.22
2019-04-06T02:35:51.556Z,38.22
2019-04-06T02:36:51.551Z,38.12
2019-04-06T02:37:51.541Z,38.12
2019-04-06T02:38:51.536Z,38.01
2019-04-06T02:39:51.631Z,38.22
2019-04-06T02:40:51.522Z,38.12
2019-04-06T02:41:51.520Z,38.12
2019-04-06T02:42:51.512Z,38.22
2019-04-06T02:43:51.601Z,38.42
2019-04-06T02:44:51.509Z,38.12
2019-04-06T02:45:51.509Z,38.22
2019-04-06T02:46:51.485Z,37.92
2019-04-06T02:47:51.492Z,37.62
2019-04-06T02:48:51.472Z,38.12
2019-04-06T02:49:51.465Z,38.22
2019-04-06T02:50:51.458Z,37.62
2019-04-06T02:51:51.454Z,38.22
2019-04-06T02:52:51.443Z,38.42
2019-04-06T02:53:51.441Z,38.01
2019-04-06T02:54:51.435Z,38.12
2019-04-06T02:55:51.434Z,38.12
2019-04-06T02:56:51.419Z,38.22
2019-04-06T02:57:51.424Z,38.01
2019-04-06T02:58:51.409Z,38.12
2019-04-06T02:59:51.402Z,38.42
2019-04-06T03:00:51.402Z,38.22
2019-04-06T03:01:51.386Z,37.62
2019-04-06T03:02:51.395Z,38.42
2019-04-06T03:03:51.372Z,38.20
2019-04-06T03:04:51.364Z,38.12
2019-04-06T03:05:51.361Z,38.22
2019-04-06T03:06:51.354Z,38.22
2019-04-06T03:07:51.346Z,38.01
2019-04-06T03:08:51.410Z,38.22
2019-04-06T03:09:51.336Z,38.12
2019-04-06T03:10:51.326Z,38.12
2019-04-06T03:11:51.318Z,38.32
2019-04-06T03:12:51.448Z,38.52
2019-04-06T03:13:51.305Z,38.01
2019-04-06T03:14:51.557Z,38.42
2019-04-06T03:15:51.292Z,38.32
2019-04-06T03:16:51.285Z,38.01
2019-04-06T03:17:51.296Z,37.42
2019-04-06T03:18:51.269Z,38.12
2019-04-06T03:19:51.262Z,37.21
2019-04-06T03:20:51.269Z,37.92
2019-04-06T03:21:51.250Z,37.92
2019-04-06T03:22:51.244Z,38.12
2019-04-06T03:23:52.242Z,38.22
2019-04-06T03:24:51.336Z,38.12
2019-04-06T03:25:51.224Z,38.22
2019-04-06T03:27:00.726Z,37.81
2019-04-06T03:28:18.521Z,38.22
2019-04-06T03:29:18.494Z,37.21
2019-04-06T03:30:18.485Z,37.62
2019-04-06T03:31:23.602Z,38.12
2019-04-06T03:32:45.690Z,37.21
2019-04-06T03:33:45.684Z,38.32
2019-04-06T03:34:45.823Z,37.42
2019-04-06T03:35:48.541Z,37.21
2019-04-06T03:36:45.681Z,37.01
2019-04-06T03:37:45.672Z,38.01
2019-04-06T03:38:45.752Z,37.92
2019-04-06T03:39:45.869Z,37.92
2019-04-06T03:40:45.654Z,38.22
2019-04-06T03:41:45.646Z,38.01
2019-04-06T03:42:45.638Z,37.01
2019-04-06T03:43:45.633Z,38.12
2019-04-06T03:44:45.626Z,37.01
2019-04-06T03:45:45.926Z,37.01
2019-04-06T03:46:45.613Z,37.92
2019-04-06T03:47:45.609Z,37.92
2019-04-06T03:48:45.629Z,37.92
2019-04-06T03:49:45.618Z,37.92
2019-04-06T03:50:45.611Z,38.32
2019-04-06T03:51:45.604Z,38.32
2019-04-06T03:52:45.597Z,38.01
2019-04-06T03:53:45.642Z,37.62
2019-04-06T03:54:45.584Z,37.92
2019-04-06T03:55:45.622Z,38.12
2019-04-06T03:56:45.571Z,38.01
2019-04-06T03:57:45.566Z,37.31
2019-04-06T03:58:45.587Z,37.51
2019-04-06T03:59:45.553Z,37.92
2019-04-06T04:00:45.545Z,37.51
2019-04-06T04:01:45.535Z,37.92
2019-04-06T04:02:45.530Z,37.01
2019-04-06T04:03:45.542Z,37.01
2019-04-06T04:04:45.516Z,37.92
2019-04-06T04:05:45.509Z,38.32
2019-04-06T04:06:45.504Z,37.92
2019-04-06T04:07:45.582Z,37.63
2019-04-06T04:08:45.531Z,37.92
2019-04-06T04:09:45.509Z,38.32
2019-04-06T04:10:47.313Z,38.42
2019-04-06T04:11:45.510Z,37.62
2019-04-06T04:12:45.648Z,37.92
2019-04-06T04:13:45.541Z,37.62
2019-04-06T04:14:45.475Z,38.01
2019-04-06T04:15:45.491Z,38.22
2019-04-06T04:16:45.484Z,37.01
2019-04-06T04:17:45.479Z,37.23
2019-04-06T04:18:45.682Z,37.01
2019-04-06T04:19:45.464Z,37.01
2019-04-06T04:20:45.457Z,37.03
2019-04-06T04:21:45.469Z,37.31
2019-04-06T04:22:45.455Z,37.81
2019-04-06T04:23:45.445Z,37.01
2019-04-06T04:24:45.440Z,37.23
2019-04-06T04:25:45.664Z,37.01
2019-04-06T04:26:45.431Z,37.01
2019-04-06T04:27:45.421Z,37.23
2019-04-06T04:28:45.409Z,37.21
2019-04-06T04:29:45.411Z,37.31
2019-04-06T04:30:45.397Z,38.01
2019-04-06T04:31:45.391Z,37.03
2019-04-06T04:32:45.518Z,37.01
2019-04-06T04:33:45.383Z,37.31
2019-04-06T04:34:45.399Z,37.31
2019-04-06T04:35:45.389Z,37.01
2019-04-06T04:36:45.496Z,37.31
2019-04-06T04:37:45.372Z,37.62
2019-04-06T04:38:45.572Z,37.21
2019-04-06T04:39:45.360Z,37.33
2019-04-06T04:40:45.405Z,37.21
2019-04-06T04:41:45.346Z,37.23
2019-04-06T04:42:45.417Z,37.23
2019-04-06T04:43:45.350Z,37.31
2019-04-06T04:44:45.323Z,37.81
2019-04-06T04:45:45.333Z,37.01
2019-04-06T04:46:45.364Z,37.23
2019-04-06T04:47:45.314Z,37.11
2019-04-06T04:48:45.310Z,37.11
2019-04-06T04:49:45.305Z,37.13
2019-04-06T04:50:45.300Z,37.13
2019-04-06T04:51:45.355Z,37.42
2019-04-06T04:52:45.300Z,37.71
2019-04-06T04:53:45.292Z,37.71
2019-04-06T04:54:45.285Z,37.71
2019-04-06T04:55:45.278Z,37.73
2019-04-06T04:56:45.272Z,37.33
2019-04-06T04:57:45.734Z,37.62
2019-04-06T04:58:45.258Z,37.62
2019-04-06T04:59:45.339Z,37.71
2019-04-06T05:00:45.242Z,37.62
2019-04-06T05:01:45.233Z,37.71
2019-04-06T05:02:45.246Z,37.62
2019-04-06T05:03:45.565Z,37.51
2019-04-06T05:04:45.232Z,37.43
2019-04-06T05:05:45.226Z,37.42
2019-04-06T05:06:45.462Z,37.62
2019-04-06T05:07:45.210Z,37.42
2019-04-06T05:08:45.204Z,37.11
2019-04-06T05:09:45.197Z,37.13
2019-04-06T05:10:45.191Z,37.42
2019-04-06T05:11:45.185Z,37.01
2019-04-06T05:12:45.177Z,37.21
2019-04-06T05:13:45.170Z,37.42
2019-04-06T05:14:45.216Z,37.51
2019-04-06T05:15:45.164Z,37.31
2019-04-06T05:16:45.159Z,37.21
2019-04-06T05:17:45.154Z,37.01
2019-04-06T05:18:45.147Z,37.11
2019-04-06T05:19:45.139Z,37.01
2019-04-06T05:20:45.133Z,37.21
2019-04-06T05:21:45.126Z,37.21
2019-04-06T05:22:45.125Z,37.31
2019-04-06T05:23:45.111Z,37.21
2019-04-06T05:24:45.106Z,37.21
2019-04-06T05:25:45.125Z,37.11
2019-04-06T05:26:45.117Z,37.11
2019-04-06T05:27:51.736Z,36.81
2019-04-06T05:29:12.355Z,36.71
2019-04-06T05:30:12.380Z,36.71
2019-04-06T05:31:12.339Z,36.61
2019-04-06T05:32:12.345Z,36.71
2019-04-06T05:33:12.528Z,36.90
2019-04-06T05:34:12.338Z,36.92
2019-04-06T05:35:12.328Z,37.20
2019-04-06T05:36:12.321Z,37.20
2019-04-06T05:37:12.314Z,37.01
2019-04-06T05:38:12.308Z,37.20
2019-04-06T05:39:12.318Z,37.40
2019-04-06T05:40:12.296Z,36.79
2019-04-06T05:41:12.291Z,36.59
2019-04-06T05:42:12.285Z,36.99
2019-04-06T05:43:12.275Z,37.20
2019-04-06T05:44:12.268Z,36.90
2019-04-06T05:45:12.262Z,37.29
2019-04-06T05:46:12.258Z,37.29
2019-04-06T05:47:12.274Z,37.09
2019-04-06T05:48:12.361Z,36.48
2019-04-06T05:49:12.260Z,37.08
2019-04-06T05:50:12.256Z,37.08
2019-04-06T05:51:12.248Z,37.38
2019-04-06T05:52:12.240Z,37.28
2019-04-06T05:53:12.248Z,37.38
2019-04-06T05:54:12.228Z,37.38
2019-04-06T05:55:12.222Z,37.18
2019-04-06T05:56:12.214Z,37.38
2019-04-06T05:57:12.229Z,36.68
2019-04-06T05:58:12.223Z,36.07
2019-04-06T05:59:12.216Z,36.27
2019-04-06T06:00:12.272Z,36.38
2019-04-06T06:01:12.221Z,36.57
2019-04-06T06:02:12.218Z,36.27
2019-04-06T06:03:12.208Z,36.27
2019-04-06T06:04:12.202Z,36.46
2019-04-06T06:05:12.351Z,36.76
2019-04-06T06:06:12.863Z,36.46
2019-04-06T06:07:12.185Z,36.76
2019-04-06T06:08:12.369Z,36.76
2019-04-06T06:09:12.213Z,36.96
2019-04-06T06:10:12.198Z,36.76
2019-04-06T06:11:12.189Z,36.74
2019-04-06T06:12:12.181Z,36.84
2019-04-06T06:13:12.174Z,36.54
2019-04-06T06:14:12.362Z,36.86
2019-04-06T06:15:12.158Z,35.96
2019-04-06T06:16:12.340Z,35.74
2019-04-06T06:17:14.266Z,35.54
2019-04-06T06:18:12.139Z,35.54
2019-04-06T06:19:12.131Z,35.84
2019-04-06T06:20:12.124Z,36.14
2019-04-06T06:21:12.253Z,36.24
2019-04-06T06:22:12.110Z,36.04
2019-04-06T06:23:12.103Z,36.02
2019-04-06T06:24:12.094Z,35.72
2019-04-06T06:25:12.104Z,35.72
2019-04-06T06:26:12.085Z,36.32
2019-04-06T06:27:12.071Z,36.02
2019-04-06T06:28:14.979Z,36.02
2019-04-06T06:29:12.060Z,36.12
2019-04-06T06:30:12.052Z,35.93
2019-04-06T06:31:12.045Z,35.93
2019-04-06T06:32:12.037Z,35.84
2019-04-06T06:33:12.188Z,35.72
2019-04-06T06:34:12.047Z,36.02
2019-04-06T06:35:12.040Z,36.02
2019-04-06T06:36:12.033Z,35.82
2019-04-06T06:37:12.030Z,36.12
2019-04-06T06:38:12.021Z,36.32
2019-04-06T06:39:12.012Z,35.32
2019-04-06T06:40:12.252Z,35.93
2019-04-06T06:41:12.018Z,35.80
2019-04-06T06:42:12.017Z,35.72
2019-04-06T06:43:12.005Z,35.72
2019-04-06T06:44:11.997Z,35.72
2019-04-06T06:45:11.989Z,35.62
2019-04-06T06:46:11.984Z,35.51
2019-04-06T06:47:12.139Z,35.22
2019-04-06T06:48:11.970Z,35.61
2019-04-06T06:49:12.139Z,35.21
2019-04-06T06:50:12.038Z,35.61
2019-04-06T06:51:11.982Z,35.80
2019-04-06T06:52:11.948Z,35.51
2019-04-06T06:53:11.941Z,35.21
2019-04-06T06:54:12.116Z,35.80
2019-04-06T06:55:11.925Z,36.01
2019-04-06T06:56:12.206Z,35.99
2019-04-06T06:57:11.980Z,35.59
2019-04-06T06:58:11.988Z,35.39
2019-04-06T06:59:11.947Z,35.49
2019-04-06T07:00:11.960Z,35.29
2019-04-06T07:01:11.955Z,35.19
2019-04-06T07:02:11.945Z,35.29
2019-04-06T07:03:11.940Z,35.09
2019-04-06T07:04:11.932Z,35.19
2019-04-06T07:05:11.928Z,34.99
2019-04-06T07:06:11.927Z,35.19
2019-04-06T07:07:11.928Z,35.09
2019-04-06T07:08:11.916Z,35.09
2019-04-06T07:09:11.920Z,34.99
2019-04-06T07:10:12.023Z,35.27
2019-04-06T07:11:11.892Z,35.19
2019-04-06T07:12:11.989Z,35.27
2019-04-06T07:13:11.911Z,34.89
2019-04-06T07:14:11.899Z,35.39
2019-04-06T07:15:11.873Z,35.39
2019-04-06T07:16:11.869Z,34.89
2019-04-06T07:17:11.884Z,34.69
2019-04-06T07:18:12.002Z,35.19
2019-04-06T07:19:11.870Z,34.99
2019-04-06T07:20:11.863Z,34.99
2019-04-06T07:21:11.859Z,35.19
2019-04-06T07:22:11.849Z,35.39
2019-04-06T07:23:11.846Z,35.39
2019-04-06T07:24:11.835Z,34.99
2019-04-06T07:25:11.834Z,34.49
2019-04-06T07:26:11.824Z,35.19
2019-04-06T07:27:11.864Z,35.29
2019-04-06T07:28:11.811Z,34.89
2019-04-06T07:29:11.802Z,35.49
2019-04-06T07:30:11.798Z,35.29
2019-04-06T07:31:11.814Z,35.51
2019-04-06T07:32:11.807Z,35.49
2019-04-06T07:33:11.802Z,35.51
2019-04-06T07:34:11.798Z,35.39
2019-04-06T07:35:12.015Z,35.69
2019-04-06T07:36:11.787Z,35.79
2019-04-06T07:37:11.782Z,35.91
2019-04-06T07:38:11.773Z,35.41
2019-04-06T07:39:11.766Z,35.51
2019-04-06T07:40:11.764Z,35.51
2019-04-06T07:41:11.942Z,35.51
2019-04-06T07:42:11.748Z,35.61
2019-04-06T07:43:11.740Z,35.51
2019-04-06T07:44:11.735Z,35.51
2019-04-06T07:45:11.732Z,35.19
2019-04-06T07:46:11.921Z,35.29
2019-04-06T07:47:11.770Z,35.09
2019-04-06T07:48:11.708Z,35.09
2019-04-06T07:49:11.703Z,35.29
2019-04-06T07:50:11.695Z,35.09
2019-04-06T07:51:11.689Z,35.09
2019-04-06T07:52:11.682Z,35.39
2019-04-06T07:53:11.678Z,35.47
2019-04-06T07:54:11.671Z,35.09
2019-04-06T07:55:11.664Z,35.39
2019-04-06T07:56:11.664Z,35.09
2019-04-06T07:57:11.651Z,35.09
2019-04-06T07:58:11.695Z,35.09
2019-04-06T07:59:11.640Z,34.57
2019-04-06T08:00:11.630Z,34.87
2019-04-06T08:01:11.624Z,34.25
2019-04-06T08:02:11.626Z,34.36
2019-04-06T08:03:11.612Z,34.24
2019-04-06T08:04:11.608Z,33.92
2019-04-06T08:05:11.601Z,33.42
2019-04-06T08:06:11.731Z,32.61
2019-04-06T08:07:11.585Z,33.01
2019-04-06T08:08:11.580Z,33.19
2019-04-06T08:09:11.571Z,33.30
2019-04-06T08:10:11.565Z,31.87
2019-04-06T08:11:11.671Z,31.75
2019-04-06T08:12:11.557Z,31.95
2019-04-06T08:13:11.544Z,30.83
2019-04-06T08:14:11.537Z,31.41
2019-04-06T08:15:11.533Z,29.99
2019-04-06T08:16:11.525Z,29.38
2019-04-06T08:17:11.521Z,29.05
2019-04-06T08:18:11.510Z,28.64
2019-04-06T08:19:11.504Z,28.43
2019-04-06T08:20:11.772Z,28.61
2019-04-06T08:21:11.490Z,28.19
2019-04-06T08:22:11.485Z,27.91
2019-04-06T08:23:11.477Z,28.40
2019-04-06T08:24:11.472Z,26.81
2019-04-06T08:25:11.550Z,27.09
2019-04-06T08:26:11.633Z,27.88
2019-04-06T08:27:11.457Z,27.29
2019-04-06T08:28:11.449Z,27.09
2019-04-06T08:29:11.440Z,27.08
2019-04-06T08:30:11.434Z,26.28
2019-04-06T08:31:11.428Z,26.56
2019-04-06T08:32:11.422Z,26.46
2019-04-06T08:33:11.431Z,25.75
2019-04-06T08:34:13.460Z,25.47
2019-04-06T08:35:11.408Z,25.97
2019-04-06T08:36:11.610Z,26.37
2019-04-06T08:37:11.387Z,26.48
2019-04-06T08:38:11.655Z,26.78
2019-04-06T08:39:11.374Z,26.37
2019-04-06T08:40:11.368Z,26.06
2019-04-06T08:41:11.368Z,26.14
2019-04-06T08:42:11.371Z,25.14
2019-04-06T08:43:11.345Z,24.92
2019-04-06T08:44:11.341Z,24.41
2019-04-06T08:45:39.111Z,23.41
2019-04-06T08:46:39.108Z,23.90
2019-04-06T08:47:39.383Z,23.49
2019-04-06T08:48:39.091Z,23.77
2019-04-06T08:49:39.091Z,23.27
2019-04-06T08:50:39.080Z,22.58
2019-04-06T08:51:39.073Z,23.16
2019-04-06T08:52:39.072Z,22.56
2019-04-06T08:53:39.061Z,22.86
2019-04-06T08:54:39.054Z,22.65
2019-04-06T08:55:39.045Z,23.14
2019-04-06T08:56:39.045Z,22.85
2019-04-06T08:57:39.113Z,22.54
2019-04-06T08:58:39.028Z,21.56
2019-04-06T09:02:06.737Z,22.64
2019-04-06T09:03:06.732Z,22.94
2019-04-06T09:04:06.921Z,22.75
2019-04-06T09:05:06.722Z,22.85
2019-04-06T09:06:06.813Z,22.76
2019-04-06T09:07:06.708Z,22.57
2019-04-06T09:08:06.791Z,22.87
2019-04-06T09:09:06.698Z,23.37
2019-04-06T09:10:06.709Z,23.77
2019-04-06T09:11:06.684Z,23.60
2019-04-06T09:12:06.679Z,24.01
2019-04-06T09:13:06.677Z,24.79
2019-04-06T09:14:06.666Z,24.23
2019-04-06T09:15:06.724Z,24.63
2019-04-06T09:16:06.678Z,25.63
2019-04-06T09:17:06.693Z,25.94
2019-04-06T09:18:06.818Z,25.65
2019-04-06T09:19:06.730Z,26.56
2019-04-06T09:20:06.686Z,26.46
2019-04-06T09:21:06.673Z,26.47
2019-04-06T09:22:06.663Z,26.39
2019-04-06T09:23:06.657Z,27.17
2019-04-06T09:24:06.701Z,27.19
2019-04-06T09:25:06.642Z,27.98
2019-04-06T09:26:06.641Z,27.99
2019-04-06T09:27:06.635Z,27.81
2019-04-06T09:28:06.878Z,28.21
2019-04-06T09:29:06.623Z,28.00
2019-04-06T09:30:06.613Z,28.70
2019-04-06T09:31:06.608Z,27.60
2019-04-06T09:32:06.602Z,27.50
2019-04-06T09:33:06.597Z,27.88
2019-04-06T09:34:06.615Z,27.17
2019-04-06T09:35:06.589Z,27.38
2019-04-06T09:36:06.580Z,26.66
2019-04-06T09:37:06.574Z,26.14
2019-04-06T09:38:06.569Z,25.84
2019-04-06T09:39:06.563Z,24.93
2019-04-06T09:40:06.556Z,24.72
2019-04-06T09:41:06.579Z,24.30
2019-04-06T09:42:06.541Z,24.79
2019-04-06T09:44:06.528Z,23.38
2019-04-06T09:45:06.525Z,23.76
2019-04-06T09:46:06.524Z,23.16
2019-04-06T09:47:06.512Z,23.16
2019-04-06T09:48:06.505Z,23.15
2019-04-06T09:49:06.503Z,22.56
2019-04-06T09:50:06.495Z,22.46
2019-04-06T09:51:06.488Z,23.22
2019-04-06T09:52:06.483Z,22.74
2019-04-06T09:53:06.478Z,21.85
2019-04-06T09:54:07.629Z,21.45
2019-04-06T09:55:06.481Z,22.03
2019-04-06T09:56:06.476Z,22.22
2019-04-06T09:57:06.469Z,22.03
2019-04-06T09:58:06.461Z,21.92
2019-04-06T09:59:06.620Z,21.82
2019-04-06T10:00:06.450Z,21.53
2019-04-06T10:01:06.444Z,21.53
2019-04-06T10:02:06.437Z,21.93
2019-04-06T10:03:06.450Z,22.03
2019-04-06T10:04:06.424Z,21.85
2019-04-06T10:05:06.422Z,22.83
2019-04-06T10:06:06.664Z,22.86
2019-04-06T10:07:06.605Z,23.26
2019-04-06T10:09:06.395Z,22.08
2019-04-06T10:10:06.389Z,23.77
2019-04-06T10:11:06.384Z,23.68
2019-04-06T10:12:06.544Z,23.68
2019-04-06T10:13:06.444Z,24.19
2019-04-06T10:14:06.437Z,24.31
2019-04-06T10:15:06.372Z,24.21
2019-04-06T10:16:06.367Z,25.21
2019-04-06T10:17:06.360Z,25.40
2019-04-06T10:18:06.354Z,24.31
2019-04-06T10:19:06.589Z,25.01
2019-04-06T10:20:06.340Z,25.03
2019-04-06T10:21:06.498Z,24.41
2019-04-06T10:23:06.322Z,24.60
2019-04-06T10:24:06.496Z,25.61
2019-04-06T10:25:06.444Z,25.03
2019-04-06T10:26:06.307Z,25.04
2019-04-06T10:27:06.299Z,25.64
2019-04-06T10:28:06.291Z,26.16
2019-04-06T10:29:06.361Z,26.47
2019-04-06T10:30:06.280Z,26.78
2019-04-06T10:31:06.274Z,27.08
2019-04-06T10:33:06.400Z,28.08
2019-04-06T10:34:06.254Z,27.89
2019-04-06T10:35:06.246Z,27.61
2019-04-06T10:36:06.527Z,28.60
2019-04-06T10:37:06.446Z,28.32
2019-04-06T10:38:06.455Z,28.32
2019-04-06T10:39:06.223Z,28.23
2019-04-06T10:40:06.360Z,28.53
2019-04-06T10:41:06.208Z,29.04
2019-04-06T10:42:06.200Z,29.14
2019-04-06T10:43:06.283Z,29.55
2019-04-06T10:44:06.191Z,29.45
2019-04-06T10:45:06.189Z,29.35
2019-04-06T10:46:06.176Z,29.35
2019-04-06T10:47:06.172Z,29.27
2019-04-06T10:48:06.353Z,30.26
2019-04-06T10:49:06.158Z,29.76
2019-04-06T10:50:06.151Z,29.66
2019-04-06T10:51:06.149Z,30.07
2019-04-06T10:52:06.141Z,29.47
2019-04-06T10:53:06.134Z,30.77
2019-04-06T10:54:06.126Z,30.48
2019-04-06T10:55:06.138Z,30.57
2019-04-06T10:56:06.115Z,30.29
2019-04-06T10:58:06.108Z,30.88
2019-04-06T10:59:06.093Z,31.18
2019-04-06T11:00:06.485Z,30.98
2019-04-06T11:01:06.081Z,31.29
2019-04-06T11:02:06.075Z,30.90
2019-04-06T11:03:06.074Z,30.80
2019-04-06T11:04:06.066Z,30.70
2019-04-06T11:05:06.060Z,30.60
2019-04-06T11:06:06.055Z,30.40
2019-04-06T11:07:06.048Z,30.99
2019-04-06T11:08:06.040Z,31.20
2019-04-06T11:09:06.032Z,31.11
2019-04-06T11:10:06.077Z,30.99
2019-04-06T11:11:06.023Z,30.71
2019-04-06T11:12:06.019Z,31.39
2019-04-06T11:13:06.013Z,30.71
2019-04-06T11:14:06.020Z,30.51
2019-04-06T11:15:06.019Z,31.90
2019-04-06T11:16:06.008Z,32.01
2019-04-06T11:17:06.000Z,31.31
2019-04-06T11:18:05.994Z,31.31
2019-04-06T11:19:05.991Z,31.31
2019-04-06T11:20:05.981Z,31.11
2019-04-06T11:21:05.975Z,31.21
2019-04-06T11:22:05.969Z,31.41
2019-04-06T11:23:05.966Z,31.41
2019-04-06T11:24:06.219Z,31.23
2019-04-06T11:25:05.999Z,31.92
2019-04-06T11:26:06.019Z,31.62
2019-04-06T11:27:05.947Z,31.72
2019-04-06T11:29:06.222Z,31.72
2019-04-06T11:30:13.164Z,31.62
2019-04-06T11:31:33.703Z,32.12
2019-04-06T11:32:33.701Z,32.12
2019-04-06T11:33:33.693Z,31.72
2019-04-06T11:34:33.689Z,31.72
2019-04-06T11:35:33.681Z,31.64
2019-04-06T11:36:33.675Z,32.02
2019-04-06T11:37:33.668Z,31.93
2019-04-06T11:38:33.661Z,31.72
2019-04-06T11:39:33.658Z,31.92
2019-04-06T11:40:33.778Z,31.92
2019-04-06T11:41:33.643Z,32.02
2019-04-06T11:42:33.929Z,32.52
2019-04-06T11:43:33.629Z,32.23
2019-04-06T11:44:33.623Z,31.93
2019-04-06T11:45:33.616Z,31.93
2019-04-06T11:46:33.636Z,32.04
2019-04-06T11:47:33.626Z,31.93
2019-04-06T11:48:33.752Z,32.14
2019-04-06T11:49:33.797Z,32.23
2019-04-06T11:50:33.630Z,32.34
2019-04-06T11:51:33.627Z,31.84
2019-04-06T11:52:33.705Z,32.14
2019-04-06T11:53:33.613Z,31.84
2019-04-06T11:54:33.607Z,32.44
2019-04-06T11:55:33.600Z,33.34
2019-04-06T11:56:33.866Z,33.34
2019-04-06T11:57:33.583Z,33.15
2019-04-06T11:58:33.646Z,32.95
2019-04-06T11:59:33.763Z,32.86
2019-04-06T12:00:33.792Z,32.85
2019-04-06T12:01:33.683Z,32.67
2019-04-06T12:02:33.552Z,33.05
2019-04-06T12:03:33.553Z,33.05
2019-04-06T12:04:33.541Z,32.86
2019-04-06T12:05:33.535Z,32.86
2019-04-06T12:06:33.635Z,33.16
2019-04-06T12:07:33.525Z,32.86
2019-04-06T12:08:33.635Z,33.06
2019-04-06T12:09:33.693Z,33.16
2019-04-06T12:10:33.506Z,33.16
2019-04-06T12:11:33.498Z,33.16
2019-04-06T12:12:33.758Z,33.86
2019-04-06T12:13:33.511Z,33.58
2019-04-06T12:14:33.513Z,33.06
2019-04-06T12:15:33.696Z,33.58
2019-04-06T12:16:33.493Z,33.78
2019-04-06T12:17:33.493Z,33.78
2019-04-06T12:18:33.818Z,33.56
2019-04-06T12:19:33.477Z,33.78
2019-04-06T12:20:33.468Z,33.58
2019-04-06T12:21:33.463Z,33.58
2019-04-06T12:22:33.748Z,33.58
2019-04-06T12:23:33.839Z,33.67
2019-04-06T12:24:33.730Z,33.67
2019-04-06T12:25:33.637Z,33.78
2019-04-06T12:26:33.452Z,33.78
2019-04-06T12:27:33.445Z,33.59
2019-04-06T12:29:01.163Z,33.78
2019-04-06T12:30:01.161Z,33.99
2019-04-06T12:31:01.165Z,33.39
2019-04-06T12:32:01.147Z,33.79
2019-04-06T12:33:01.144Z,33.49
2019-04-06T12:34:01.139Z,34.19
2019-04-06T12:35:01.131Z,34.19
2019-04-06T12:36:01.124Z,34.19
2019-04-06T12:37:01.121Z,34.49
2019-04-06T12:38:01.111Z,34.59
2019-04-06T12:39:01.105Z,34.29
2019-04-06T12:40:01.278Z,34.91
2019-04-06T12:41:01.090Z,34.89
2019-04-06T12:42:01.085Z,34.89
2019-04-06T12:43:01.118Z,34.59
2019-04-06T12:44:01.072Z,34.69
2019-04-06T12:45:01.065Z,34.59
2019-04-06T12:46:01.088Z,34.99
2019-04-06T12:47:01.059Z,34.29
2019-04-06T12:48:01.045Z,34.49
2019-04-06T12:49:01.071Z,34.49
2019-04-06T12:50:01.034Z,34.29
2019-04-06T12:51:01.027Z,33.99
2019-04-06T12:52:01.019Z,34.49
2019-04-06T12:53:01.218Z,34.39
2019-04-06T12:54:01.156Z,34.59
2019-04-06T12:55:01.548Z,34.71
2019-04-06T12:56:01.152Z,34.69
2019-04-06T12:57:00.988Z,34.91
2019-04-06T12:58:00.982Z,34.59
2019-04-06T12:59:00.977Z,34.91
2019-04-06T13:00:00.973Z,34.79
2019-04-06T13:01:00.966Z,34.69
2019-04-06T13:02:00.956Z,34.99
2019-04-06T13:03:00.951Z,34.89
2019-04-06T13:04:00.949Z,34.21